Time;durP1;ratioP1;P1;durP2;ratioP2;P2;SDS_P1;SDS_P2;PMS_P1;PMS_P2;Temp;Humidity;BMP_temperature;BMP_pressure;BME280_temperature;BME280_humidity;BME280_pressure;Samples;Min_cycle;Max_cycle;Signal;HPM_P1;HPM_P2
2022/07/04 00:00:47;;;;;;;6.35;5.68;;;;;;;;;;5027460;28;20179;-64
2022/07/04 00:03:12;;;;;;;7.93;5.55;;;;;;;;;;5026435;28;20186;-65
2022/07/04 00:05:38;;;;;;;11.20;6.30;;;;;;;;;;5024096;28;20258;-64
2022/07/04 00:08:04;;;;;;;7.97;5.93;;;;;;;;;;5021312;28;20239;-64
2022/07/04 00:10:29;;;;;;;6.85;5.47;;;;;;;;;;5029729;28;20183;-64
2022/07/04 00:12:54;;;;;;;7.10;6.00;;;;;;;;;;5023292;28;20687;-64
2022/07/04 00:15:20;;;;;;;9.40;5.65;;;;;;;;;;5025213;28;20194;-64
2022/07/04 00:17:45;;;;;;;6.43;5.53;;;;;;;;;;5026202;28;20216;-64
2022/07/04 00:20:11;;;;;;;9.05;5.07;;;;;;;;;;5026812;28;20285;-64
2022/07/04 00:22:37;;;;;;;5.70;5.10;;;;;;;;;;5022019;28;20270;-64
2022/07/04 00:25:03;;;;;;;7.38;5.47;;;;;;;;;;5024362;28;20332;-63
2022/07/04 00:27:28;;;;;;;6.55;5.15;;;;;;;;;;5017438;28;20327;-64
2022/07/04 00:29:54;;;;;;;10.00;5.60;;;;;;;;;;5026196;28;20175;-64
2022/07/04 00:32:19;;;;;;;8.73;5.63;;;;;;;;;;5029766;28;20202;-64
2022/07/04 00:34:45;;;;;;;10.63;5.47;;;;;;;;;;5034895;28;20175;-64
2022/07/04 00:37:10;;;;;;;8.18;4.95;;;;;;;;;;5019463;28;20217;-64
2022/07/04 00:39:36;;;;;;;6.75;4.90;;;;;;;;;;5024118;28;20202;-64
2022/07/04 00:42:01;;;;;;;6.68;4.90;;;;;;;;;;5024598;28;20189;-63
2022/07/04 00:44:27;;;;;;;7.25;4.70;;;;;;;;;;5018268;28;20223;-63
2022/07/04 00:46:52;;;;;;;6.57;4.68;;;;;;;;;;5015660;28;20185;-62
2022/07/04 00:49:18;;;;;;;9.02;5.20;;;;;;;;;;5024289;28;20174;-62
2022/07/04 00:51:44;;;;;;;7.97;4.57;;;;;;;;;;5021455;28;20184;-62
2022/07/04 00:54:13;;;;;;;7.97;5.10;;;;;;;;;;5024343;28;20241;-63
2022/07/04 00:56:41;;;;;;;5.28;4.75;;;;;;;;;;5015609;28;20186;-64
2022/07/04 00:59:07;;;;;;;6.78;4.70;;;;;;;;;;5022441;28;20586;-64
2022/07/04 01:01:33;;;;;;;7.82;4.35;;;;;;;;;;5024458;28;20186;-64
2022/07/04 01:03:59;;;;;;;7.65;4.50;;;;;;;;;;5020964;28;20205;-64
2022/07/04 01:06:24;;;;;;;5.53;4.57;;;;;;;;;;5018381;28;20248;-64
2022/07/04 01:08:50;;;;;;;7.68;4.70;;;;;;;;;;5023949;28;20267;-64
2022/07/04 01:11:16;;;;;;;10.95;5.35;;;;;;;;;;5024545;28;20630;-64
2022/07/04 01:13:42;;;;;;;8.75;4.40;;;;;;;;;;5021725;28;20178;-64
2022/07/04 01:16:08;;;;;;;8.18;4.63;;;;;;;;;;5028812;28;20208;-64
2022/07/04 01:18:34;;;;;;;7.43;4.88;;;;;;;;;;5020790;28;20694;-64
2022/07/04 01:21:00;;;;;;;10.45;5.63;;;;;;;;;;5016715;28;20249;-64
2022/07/04 01:23:25;;;;;;;9.25;4.93;;;;;;;;;;5025937;28;20185;-64
2022/07/04 01:25:52;;;;;;;7.45;5.10;;;;;;;;;;5024225;28;20186;-64
2022/07/04 01:28:21;;;;;;;6.97;5.35;;;;;;;;;;5020159;28;20214;-64
2022/07/04 01:30:47;;;;;;;7.15;4.80;;;;;;;;;;5020607;28;20186;-64
2022/07/04 01:33:12;;;;;;;8.07;5.40;;;;;;;;;;5018546;28;20566;-63
2022/07/04 01:35:38;;;;;;;8.93;5.18;;;;;;;;;;5035029;28;20265;-63
2022/07/04 01:38:03;;;;;;;6.25;5.22;;;;;;;;;;5024402;28;20194;-63
2022/07/04 01:40:29;;;;;;;10.00;5.05;;;;;;;;;;5026733;28;20289;-65
2022/07/04 01:42:54;;;;;;;8.45;4.82;;;;;;;;;;5020906;28;20238;-63
2022/07/04 01:45:20;;;;;;;5.95;5.35;;;;;;;;;;5018077;28;20219;-63
2022/07/04 01:47:45;;;;;;;8.95;5.18;;;;;;;;;;5020740;28;20231;-64
2022/07/04 01:50:12;;;;;;;7.68;5.95;;;;;;;;;;5020729;28;20178;-63
2022/07/04 01:52:38;;;;;;;8.05;5.60;;;;;;;;;;5019191;28;20193;-64
2022/07/04 01:55:04;;;;;;;8.93;5.80;;;;;;;;;;5017588;28;20677;-64
2022/07/04 01:57:29;;;;;;;9.23;5.40;;;;;;;;;;5020335;28;20266;-64
2022/07/04 02:02:39;;;;;;;8.63;5.40;;;;;;;;;;5017277;28;20212;-64
2022/07/04 02:05:04;;;;;;;9.43;5.90;;;;;;;;;;5020408;28;20273;-64
2022/07/04 02:07:30;;;;;;;7.47;6.00;;;;;;;;;;5026838;28;20672;-64
2022/07/04 02:09:56;;;;;;;7.43;4.85;;;;;;;;;;5021473;28;20637;-63
2022/07/04 02:15:06;;;;;;;9.18;5.50;;;;;;;;;;5027940;28;20240;-63
2022/07/04 02:17:31;;;;;;;9.68;5.68;;;;;;;;;;5025012;28;20192;-63
2022/07/04 02:19:57;;;;;;;8.25;5.60;;;;;;;;;;5027922;28;20198;-63
2022/07/04 02:22:22;;;;;;;8.18;6.00;;;;;;;;;;5024948;28;20199;-65
2022/07/04 02:24:47;;;;;;;7.65;6.07;;;;;;;;;;5028171;28;20602;-63
2022/07/04 02:27:13;;;;;;;6.65;5.15;;;;;;;;;;5037960;28;20758;-64
2022/07/04 02:29:40;;;;;;;9.60;5.80;;;;;;;;;;5021030;28;20556;-64
2022/07/04 02:32:05;;;;;;;8.55;5.65;;;;;;;;;;5017716;28;20218;-63
2022/07/04 02:34:31;;;;;;;6.68;5.57;;;;;;;;;;5024533;28;20189;-65
2022/07/04 02:36:56;;;;;;;8.45;5.38;;;;;;;;;;5019916;28;20192;-65
2022/07/04 02:39:21;;;;;;;7.53;5.75;;;;;;;;;;5014896;28;20202;-65
2022/07/04 02:41:47;;;;;;;7.18;5.82;;;;;;;;;;5020047;28;20529;-64
2022/07/04 02:44:13;;;;;;;7.70;5.75;;;;;;;;;;5009049;28;20174;-64
2022/07/04 02:46:38;;;;;;;11.38;4.70;;;;;;;;;;5016405;28;20253;-65
2022/07/04 02:49:04;;;;;;;5.93;5.30;;;;;;;;;;5018849;28;20185;-64
2022/07/04 02:51:29;;;;;;;8.02;5.45;;;;;;;;;;5019345;28;20193;-64
2022/07/04 02:53:55;;;;;;;6.45;5.65;;;;;;;;;;5019089;28;20191;-63
2022/07/04 02:56:21;;;;;;;8.00;5.93;;;;;;;;;;5018544;28;20182;-64
2022/07/04 02:58:46;;;;;;;6.32;5.45;;;;;;;;;;5026838;28;20225;-64
2022/07/04 03:01:12;;;;;;;6.38;5.70;;;;;;;;;;5026061;28;20212;-64
2022/07/04 03:03:39;;;;;;;7.53;5.60;;;;;;;;;;5021965;28;20590;-64
2022/07/04 03:06:05;;;;;;;8.75;6.00;;;;;;;;;;5031642;28;20182;-64
2022/07/04 03:08:30;;;;;;;10.45;6.10;;;;;;;;;;5018417;28;20643;-64
2022/07/04 03:10:55;;;;;;;8.55;6.47;;;;;;;;;;5015054;28;20188;-64
2022/07/04 03:13:21;;;;;;;12.82;7.10;;;;;;;;;;5021633;28;20543;-64
2022/07/04 03:15:46;;;;;;;8.48;6.40;;;;;;;;;;5012502;28;20174;-64
2022/07/04 03:18:12;;;;;;;9.40;7.15;;;;;;;;;;5023778;28;20198;-64
2022/07/04 03:20:37;;;;;;;13.73;8.68;;;;;;;;;;5036086;28;20181;-64
2022/07/04 03:23:03;;;;;;;10.55;8.80;;;;;;;;;;5021934;28;20182;-64
2022/07/04 03:25:29;;;;;;;12.45;8.48;;;;;;;;;;5013817;28;20171;-64
2022/07/04 03:27:54;;;;;;;10.38;8.82;;;;;;;;;;5023344;28;20316;-64
2022/07/04 03:30:20;;;;;;;10.90;8.75;;;;;;;;;;5029819;28;20166;-64
2022/07/04 03:32:45;;;;;;;15.18;8.40;;;;;;;;;;5028328;28;20209;-64
2022/07/04 03:35:10;;;;;;;13.27;9.57;;;;;;;;;;5027992;28;20224;-63
2022/07/04 03:37:36;;;;;;;12.57;9.38;;;;;;;;;;5023947;28;20240;-63
2022/07/04 03:40:01;;;;;;;12.80;9.15;;;;;;;;;;5021562;28;20531;-63
2022/07/04 03:42:26;;;;;;;13.05;9.77;;;;;;;;;;5021432;28;20245;-63
2022/07/04 03:44:52;;;;;;;15.02;10.13;;;;;;;;;;5023284;28;20221;-64
2022/07/04 03:47:18;;;;;;;13.43;10.43;;;;;;;;;;5018052;28;20277;-63
2022/07/04 03:49:43;;;;;;;14.27;12.13;;;;;;;;;;5026141;28;20175;-64
2022/07/04 03:52:09;;;;;;;21.65;12.13;;;;;;;;;;5013532;28;20206;-63
2022/07/04 03:54:34;;;;;;;18.27;12.35;;;;;;;;;;5021531;28;20268;-64
2022/07/04 03:56:59;;;;;;;19.83;13.85;;;;;;;;;;5025323;28;20191;-63
2022/07/04 03:59:25;;;;;;;19.88;13.48;;;;;;;;;;5035346;28;20213;-63
2022/07/04 04:01:50;;;;;;;21.27;12.60;;;;;;;;;;5014577;28;20637;-63
2022/07/04 04:06:59;;;;;;;14.77;10.60;;;;;;;;;;5022639;28;20201;-63
2022/07/04 04:09:25;;;;;;;14.00;10.02;;;;;;;;;;5030481;28;20638;-63
2022/07/04 04:11:51;;;;;;;17.80;11.30;;;;;;;;;;5022908;28;20183;-65
2022/07/04 04:14:17;;;;;;;13.85;10.38;;;;;;;;;;5025046;28;20185;-64
2022/07/04 04:16:42;;;;;;;13.23;10.02;;;;;;;;;;5026478;28;20183;-64
2022/07/04 04:19:08;;;;;;;13.00;8.40;;;;;;;;;;5023186;28;20695;-64
2022/07/04 04:21:33;;;;;;;11.23;8.27;;;;;;;;;;5027259;28;20854;-64
2022/07/04 04:23:59;;;;;;;11.57;7.93;;;;;;;;;;5036670;28;20181;-64
2022/07/04 04:26:24;;;;;;;12.70;8.10;;;;;;;;;;5023041;28;20189;-64
2022/07/04 04:28:49;;;;;;;11.13;8.45;;;;;;;;;;5022992;28;20592;-64
2022/07/04 04:31:17;;;;;;;12.35;8.52;;;;;;;;;;5023995;28;20774;-64
2022/07/04 04:33:42;;;;;;;11.57;8.23;;;;;;;;;;5028405;28;20186;-64
2022/07/04 04:36:07;;;;;;;8.63;7.07;;;;;;;;;;5025746;28;20608;-64
2022/07/04 04:38:32;;;;;;;10.65;6.75;;;;;;;;;;5026676;28;20229;-64
2022/07/04 04:40:58;;;;;;;8.10;5.70;;;;;;;;;;5025863;28;20183;-64
2022/07/04 04:43:23;;;;;;;8.57;5.65;;;;;;;;;;5037339;28;20565;-64
2022/07/04 04:45:48;;;;;;;7.70;5.20;;;;;;;;;;5023246;28;20185;-63
2022/07/04 04:48:14;;;;;;;7.72;5.45;;;;;;;;;;5041592;28;20190;-63
2022/07/04 04:50:39;;;;;;;6.35;5.18;;;;;;;;;;5032860;28;20193;-63
2022/07/04 04:53:05;;;;;;;6.78;5.00;;;;;;;;;;5026607;28;20193;-64
2022/07/04 04:55:30;;;;;;;6.82;4.47;;;;;;;;;;5024530;28;20293;-65
2022/07/04 04:57:56;;;;;;;9.05;4.85;;;;;;;;;;5026041;28;20190;-64
2022/07/04 05:00:21;;;;;;;8.45;4.80;;;;;;;;;;5033961;28;20280;-65
2022/07/04 05:02:46;;;;;;;9.20;5.15;;;;;;;;;;5035321;28;20189;-65
2022/07/04 05:05:12;;;;;;;5.85;5.10;;;;;;;;;;5040545;28;20188;-64
2022/07/04 05:07:37;;;;;;;11.60;5.00;;;;;;;;;;5040350;28;20193;-64
2022/07/04 05:10:03;;;;;;;6.80;4.63;;;;;;;;;;5039650;28;20188;-64
2022/07/04 05:12:29;;;;;;;10.27;4.30;;;;;;;;;;5020811;28;20187;-63
2022/07/04 05:14:54;;;;;;;11.85;5.70;;;;;;;;;;5031642;28;20178;-63
2022/07/04 05:17:20;;;;;;;10.60;5.63;;;;;;;;;;5041268;28;20287;-64
2022/07/04 05:19:46;;;;;;;7.78;5.18;;;;;;;;;;5040152;28;20205;-64
2022/07/04 05:22:11;;;;;;;8.05;5.60;;;;;;;;;;5042561;28;20495;-63
2022/07/04 05:24:40;;;;;;;8.18;5.13;;;;;;;;;;5011594;28;20292;-63
2022/07/04 05:27:06;;;;;;;11.20;4.80;;;;;;;;;;5017584;28;20234;-62
2022/07/04 05:29:32;;;;;;;12.45;4.95;;;;;;;;;;5017351;28;20677;-62
2022/07/04 05:31:57;;;;;;;9.52;5.13;;;;;;;;;;5012583;28;20201;-63
2022/07/04 05:34:23;;;;;;;10.10;5.05;;;;;;;;;;5020045;28;20194;-64
2022/07/04 05:36:48;;;;;;;8.80;5.30;;;;;;;;;;5026860;28;20212;-63
2022/07/04 05:39:13;;;;;;;10.05;5.45;;;;;;;;;;5022370;28;20194;-63
2022/07/04 05:41:39;;;;;;;7.20;5.18;;;;;;;;;;5037291;28;20192;-63
2022/07/04 05:44:05;;;;;;;10.23;5.05;;;;;;;;;;5038635;28;20292;-63
2022/07/04 05:46:30;;;;;;;10.68;4.78;;;;;;;;;;5040399;28;20192;-63
2022/07/04 05:48:55;;;;;;;7.88;4.90;;;;;;;;;;5016935;28;20189;-63
2022/07/04 05:51:21;;;;;;;9.35;5.05;;;;;;;;;;5030708;28;20633;-63
2022/07/04 05:53:46;;;;;;;14.10;5.68;;;;;;;;;;5025754;28;20187;-63
2022/07/04 05:56:12;;;;;;;7.93;4.40;;;;;;;;;;5019008;28;20181;-63
2022/07/04 05:58:38;;;;;;;6.30;4.43;;;;;;;;;;5026958;28;20298;-64
2022/07/04 06:01:03;;;;;;;9.90;4.83;;;;;;;;;;5029151;28;20773;-63
2022/07/04 06:03:28;;;;;;;6.85;4.55;;;;;;;;;;5024303;28;20186;-62
2022/07/04 06:05:55;;;;;;;8.43;4.93;;;;;;;;;;5017265;28;20174;-63
2022/07/04 06:08:20;;;;;;;9.73;4.70;;;;;;;;;;5017393;28;20648;-63
2022/07/04 06:10:46;;;;;;;12.25;5.00;;;;;;;;;;5034885;28;20166;-63
2022/07/04 06:13:11;;;;;;;5.95;5.05;;;;;;;;;;5034343;28;20189;-64
2022/07/04 06:15:37;;;;;;;9.07;4.65;;;;;;;;;;5035873;28;20180;-63
2022/07/04 06:18:02;;;;;;;8.77;4.72;;;;;;;;;;5038621;28;20178;-63
2022/07/04 06:20:28;;;;;;;9.75;4.88;;;;;;;;;;5023881;28;20697;-66
2022/07/04 06:22:54;;;;;;;13.35;4.70;;;;;;;;;;5038380;28;20185;-63
2022/07/04 06:25:20;;;;;;;11.75;5.63;;;;;;;;;;5037741;28;20178;-63
2022/07/04 06:27:48;;;;;;;8.52;4.55;;;;;;;;;;5026822;28;20226;-63
2022/07/04 06:30:14;;;;;;;7.93;4.57;;;;;;;;;;5026927;28;20439;-63
2022/07/04 06:32:50;;;;;;;8.40;4.55;;;;;;;;;;5042427;28;20220;-63
2022/07/04 06:35:45;;;;;;;6.88;4.30;;;;;;;;;;5039802;28;20735;-63
2022/07/04 06:38:29;;;;;;;7.82;4.45;;;;;;;;;;5042389;28;20282;-65
2022/07/04 06:40:57;;;;;;;8.85;4.82;;;;;;;;;;5039233;28;20169;-64
2022/07/04 06:43:23;;;;;;;7.75;4.22;;;;;;;;;;5040533;28;20173;-64
2022/07/04 06:45:49;;;;;;;8.45;4.15;;;;;;;;;;5032676;28;20292;-66
2022/07/04 06:48:14;;;;;;;9.48;4.70;;;;;;;;;;5038139;28;20688;-62
2022/07/04 06:50:40;;;;;;;7.22;3.70;;;;;;;;;;5040080;28;20642;-63
2022/07/04 06:53:07;;;;;;;7.25;3.85;;;;;;;;;;5043405;28;20188;-66
2022/07/04 06:55:32;;;;;;;7.57;3.50;;;;;;;;;;5037437;28;20182;-64
2022/07/04 06:57:58;;;;;;;7.82;3.75;;;;;;;;;;5035963;28;20186;-65
2022/07/04 07:00:24;;;;;;;8.07;3.67;;;;;;;;;;5031954;28;20524;-63
2022/07/04 07:02:49;;;;;;;10.90;3.95;;;;;;;;;;5039774;28;20319;-65
2022/07/04 07:05:14;;;;;;;11.30;3.55;;;;;;;;;;5035043;28;20269;-63
2022/07/04 07:07:40;;;;;;;8.25;3.05;;;;;;;;;;5030652;28;20184;-63
2022/07/04 07:10:06;;;;;;;7.75;3.45;;;;;;;;;;5044229;28;20177;-66
2022/07/04 07:12:33;;;;;;;6.55;3.10;;;;;;;;;;5032271;28;20189;-63
2022/07/04 07:14:59;;;;;;;7.18;3.45;;;;;;;;;;5041149;28;20203;-63
2022/07/04 07:17:24;;;;;;;8.90;3.63;;;;;;;;;;5046858;28;20190;-62
2022/07/04 07:19:50;;;;;;;7.65;3.55;;;;;;;;;;5047721;28;20212;-61
2022/07/04 07:22:16;;;;;;;7.38;3.92;;;;;;;;;;5042846;28;20212;-63
2022/07/04 07:24:41;;;;;;;9.90;3.42;;;;;;;;;;5043584;28;20283;-66
2022/07/04 07:27:08;;;;;;;8.57;3.50;;;;;;;;;;5041429;28;20276;-62
2022/07/04 07:29:34;;;;;;;9.40;3.50;;;;;;;;;;5046040;28;20177;-63
2022/07/04 07:32:00;;;;;;;10.20;3.67;;;;;;;;;;5048449;28;20206;-63
2022/07/04 07:34:25;;;;;;;9.20;3.92;;;;;;;;;;5046111;28;20189;-63
2022/07/04 07:36:51;;;;;;;8.95;3.80;;;;;;;;;;5045180;28;20185;-63
2022/07/04 07:39:17;;;;;;;8.55;4.00;;;;;;;;;;5045376;28;20726;-63
2022/07/04 07:41:42;;;;;;;10.10;3.05;;;;;;;;;;5043835;28;20221;-63
2022/07/04 07:44:08;;;;;;;7.55;2.97;;;;;;;;;;5043494;28;20665;-63
2022/07/04 07:46:33;;;;;;;7.80;3.17;;;;;;;;;;5034850;28;20268;-63
2022/07/04 07:48:58;;;;;;;9.27;3.10;;;;;;;;;;5034106;28;20178;-63
2022/07/04 07:51:24;;;;;;;3.42;2.42;;;;;;;;;;5048520;28;20584;-63
2022/07/04 07:53:49;;;;;;;7.72;3.33;;;;;;;;;;5044345;28;20181;-64
2022/07/04 07:56:15;;;;;;;7.53;2.53;;;;;;;;;;5040906;28;20189;-63
2022/07/04 07:58:40;;;;;;;7.30;2.70;;;;;;;;;;5044540;28;20638;-63
2022/07/04 08:01:05;;;;;;;7.65;2.60;;;;;;;;;;5026816;28;20174;-63
2022/07/04 08:06:15;;;;;;;7.65;2.67;;;;;;;;;;5029036;28;20371;-65
2022/07/04 08:08:42;;;;;;;10.30;2.80;;;;;;;;;;5032313;28;20325;-63
2022/07/04 08:11:08;;;;;;;7.43;2.30;;;;;;;;;;5022284;28;20654;-63
2022/07/04 08:13:33;;;;;;;8.38;2.25;;;;;;;;;;5031179;28;20179;-63
2022/07/04 08:15:59;;;;;;;6.53;2.30;;;;;;;;;;5028563;28;20669;-63
2022/07/04 08:18:24;;;;;;;5.47;1.90;;;;;;;;;;5028645;28;20204;-65
2022/07/04 08:20:50;;;;;;;6.25;1.83;;;;;;;;;;5027722;28;20297;-64
2022/07/04 08:23:16;;;;;;;6.13;2.80;;;;;;;;;;5042228;28;20193;-66
2022/07/04 08:25:41;;;;;;;4.70;1.90;;;;;;;;;;5023942;28;20185;-62
2022/07/04 08:28:07;;;;;;;4.95;2.05;;;;;;;;;;5025844;28;20281;-63
2022/07/04 08:30:33;;;;;;;7.30;2.83;;;;;;;;;;5023430;28;20256;-63
2022/07/04 08:32:58;;;;;;;5.13;2.13;;;;;;;;;;5028440;28;20241;-63
2022/07/04 08:35:24;;;;;;;4.78;1.80;;;;;;;;;;5029181;28;20190;-63
2022/07/04 08:37:53;;;;;;;6.50;2.08;;;;;;;;;;5038811;28;20242;-67
2022/07/04 08:40:23;;;;;;;5.00;2.03;;;;;;;;;;5026111;28;20230;-63
2022/07/04 08:42:49;;;;;;;8.23;2.28;;;;;;;;;;5030276;28;20186;-63
2022/07/04 08:45:16;;;;;;;8.82;2.45;;;;;;;;;;5023594;28;20178;-63
2022/07/04 08:47:43;;;;;;;8.20;2.05;;;;;;;;;;5021720;28;20668;-63
2022/07/04 08:50:12;;;;;;;8.05;2.30;;;;;;;;;;5028039;28;20182;-63
2022/07/04 08:52:42;;;;;;;5.72;2.20;;;;;;;;;;5031311;28;20213;-63
2022/07/04 09:00:38;;;;;;;7.18;2.72;;;;;;;;;;5028615;28;20723;-63
2022/07/04 09:03:04;;;;;;;8.38;2.00;;;;;;;;;;5025828;28;20182;-64
2022/07/04 09:05:32;;;;;;;7.75;2.13;;;;;;;;;;4333442;28;10000711;-64
2022/07/04 09:07:58;;;;;;;5.68;2.60;;;;;;;;;;5030269;28;20190;-63
2022/07/04 09:10:24;;;;;;;7.20;2.33;;;;;;;;;;5026246;28;20683;-65
2022/07/04 09:12:49;;;;;;;5.00;2.30;;;;;;;;;;5029772;28;20196;-66
2022/07/04 09:15:16;;;;;;;5.80;2.60;;;;;;;;;;5028563;28;20185;-64
2022/07/04 09:17:41;;;;;;;3.97;2.45;;;;;;;;;;5024847;28;20197;-62
2022/07/04 09:20:19;;;;;;;5.93;2.28;;;;;;;;;;5028598;28;20268;-63
2022/07/04 09:22:46;;;;;;;4.75;2.55;;;;;;;;;;5040912;28;20238;-62
2022/07/04 09:25:14;;;;;;;6.63;2.47;;;;;;;;;;5038733;28;20178;-62
2022/07/04 09:27:41;;;;;;;7.63;2.70;;;;;;;;;;5030831;28;20228;-62
2022/07/04 09:30:07;;;;;;;9.57;2.78;;;;;;;;;;5030331;28;20186;-63
2022/07/04 09:32:43;;;;;;;5.88;2.58;;;;;;;;;;5039260;28;20213;-62
2022/07/04 09:35:20;;;;;;;7.97;2.97;;;;;;;;;;5038553;28;20169;-63
2022/07/04 09:37:50;;;;;;;8.18;2.65;;;;;;;;;;5042539;28;20574;-63
2022/07/04 09:40:30;;;;;;;5.35;2.70;;;;;;;;;;5032892;28;20294;-62
2022/07/04 09:42:59;;;;;;;6.90;2.75;;;;;;;;;;5036591;28;20561;-65
2022/07/04 09:45:25;;;;;;;8.05;2.97;;;;;;;;;;5019794;28;20193;-63
2022/07/04 09:47:59;;;;;;;4.80;3.70;;;;;;;;;;5015946;28;20236;-64
2022/07/04 09:50:28;;;;;;;6.15;2.58;;;;;;;;;;5023977;28;20189;-63
2022/07/04 09:52:57;;;;;;;9.32;2.80;;;;;;;;;;5028063;28;20195;-63
2022/07/04 09:55:27;;;;;;;12.57;3.72;;;;;;;;;;5028252;28;20220;-66
2022/07/04 09:57:54;;;;;;;7.65;2.72;;;;;;;;;;5032203;28;20240;-62
2022/07/04 10:00:21;;;;;;;7.00;2.70;;;;;;;;;;5029578;28;20260;-63
2022/07/04 10:02:48;;;;;;;5.53;2.03;;;;;;;;;;5035349;28;20180;-63
2022/07/04 10:05:20;;;;;;;10.23;2.40;;;;;;;;;;5040554;28;20184;-62
2022/07/04 10:07:47;;;;;;;8.10;2.63;;;;;;;;;;5042391;28;20192;-63
2022/07/04 10:10:31;;;;;;;5.07;2.72;;;;;;;;;;5041655;28;20613;-62
2022/07/04 10:13:05;;;;;;;11.43;2.70;;;;;;;;;;5036200;28;20684;-63
2022/07/04 10:15:32;;;;;;;5.10;2.67;;;;;;;;;;5038415;28;20644;-63
2022/07/04 10:17:58;;;;;;;10.27;3.25;;;;;;;;;;5044287;28;20597;-63
2022/07/04 10:20:23;;;;;;;6.70;2.85;;;;;;;;;;5033478;28;20282;-63
2022/07/04 10:22:49;;;;;;;7.45;2.33;;;;;;;;;;5034487;28;20188;-63
2022/07/04 10:25:14;;;;;;;5.07;2.00;;;;;;;;;;5037092;28;20213;-63
2022/07/04 10:27:40;;;;;;;6.28;2.25;;;;;;;;;;5042447;28;20213;-62
2022/07/04 10:30:10;;;;;;;6.53;2.33;;;;;;;;;;5042996;28;20181;-62
2022/07/04 10:32:37;;;;;;;3.92;2.15;;;;;;;;;;5046102;28;20209;-62
2022/07/04 10:35:03;;;;;;;8.02;2.50;;;;;;;;;;5039286;28;20672;-63
2022/07/04 10:38:04;;;;;;;4.75;1.88;;;;;;;;;;5042874;28;20197;-63
2022/07/04 10:40:43;;;;;;;4.35;1.70;;;;;;;;;;5035002;28;20177;-63
2022/07/04 10:43:31;;;;;;;3.42;1.70;;;;;;;;;;5037094;28;20291;-63
2022/07/04 10:46:15;;;;;;;5.43;1.67;;;;;;;;;;5026386;28;20488;-63
2022/07/04 10:49:02;;;;;;;5.68;1.20;;;;;;;;;;5039593;28;20395;-63
2022/07/04 10:51:40;;;;;;;2.40;1.20;;;;;;;;;;5025688;28;20227;-63
2022/07/04 10:54:32;;;;;;;3.00;1.50;;;;;;;;;;5019654;28;20586;-64
2022/07/04 10:57:21;;;;;;;7.47;1.70;;;;;;;;;;5015570;28;20285;-66
2022/07/04 10:59:56;;;;;;;4.00;1.35;;;;;;;;;;5022305;28;20205;-64
2022/07/04 11:02:26;;;;;;;3.38;1.35;;;;;;;;;;5026907;28;20195;-64
2022/07/04 11:05:11;;;;;;;3.40;1.10;;;;;;;;;;5023449;28;20208;-64
2022/07/04 11:07:36;;;;;;;6.82;1.60;;;;;;;;;;5022312;28;20201;-64
2022/07/04 11:10:11;;;;;;;5.25;1.55;;;;;;;;;;5034671;28;20708;-63
2022/07/04 11:12:59;;;;;;;4.38;1.50;;;;;;;;;;5030856;28;20537;-64
2022/07/04 11:15:24;;;;;;;3.38;1.40;;;;;;;;;;5010694;28;20203;-63
2022/07/04 11:17:51;;;;;;;2.80;1.20;;;;;;;;;;5045996;28;20228;-63
2022/07/04 11:20:17;;;;;;;4.10;1.42;;;;;;;;;;5031356;28;20198;-63
2022/07/04 11:22:43;;;;;;;3.95;1.30;;;;;;;;;;5032648;28;20204;-63
2022/07/04 11:25:11;;;;;;;5.53;1.20;;;;;;;;;;5029565;28;20260;-63
2022/07/04 11:27:37;;;;;;;3.38;1.20;;;;;;;;;;5035209;28;20308;-62
2022/07/04 11:30:02;;;;;;;2.38;1.20;;;;;;;;;;4330609;28;10000807;-63
2022/07/04 11:32:32;;;;;;;3.22;1.40;;;;;;;;;;5013422;28;20207;-63
2022/07/04 11:34:58;;;;;;;3.80;1.00;;;;;;;;;;5036767;28;20185;-64
2022/07/04 11:37:23;;;;;;;5.07;1.10;;;;;;;;;;5017809;28;20189;-67
2022/07/04 11:45:02;;;;;;;2.67;1.00;;;;;;;;;;5034912;28;20198;-63
2022/07/04 11:45:48;;;;;;;3.45;1.10;;;;;;;;;;5018667;28;20256;-63
2022/07/04 11:48:27;;;;;;;4.20;1.13;;;;;;;;;;5037538;28;20641;-65
2022/07/04 11:50:53;;;;;;;5.93;0.90;;;;;;;;;;5040986;28;20181;-65
2022/07/04 11:53:19;;;;;;;1.55;0.90;;;;;;;;;;5031869;28;20546;-63
2022/07/04 11:56:01;;;;;;;4.70;0.90;;;;;;;;;;5026006;28;20717;-63
2022/07/04 11:58:38;;;;;;;2.45;0.80;;;;;;;;;;5022501;28;20212;-64
2022/07/04 12:01:04;;;;;;;3.28;0.95;;;;;;;;;;5031585;28;20671;-66
2022/07/04 12:03:31;;;;;;;3.67;1.02;;;;;;;;;;5020531;28;20208;-66
2022/07/04 12:06:03;;;;;;;2.90;1.00;;;;;;;;;;5036634;28;20197;-64
2022/07/04 12:08:29;;;;;;;3.33;1.10;;;;;;;;;;5033528;28;20182;-64
2022/07/04 12:10:54;;;;;;;6.35;1.05;;;;;;;;;;5031534;28;20190;-63
2022/07/04 12:13:20;;;;;;;3.08;1.00;;;;;;;;;;5025635;28;20185;-63
2022/07/04 12:15:51;;;;;;;3.05;1.15;;;;;;;;;;5030909;28;20239;-63
2022/07/04 12:18:36;;;;;;;4.47;1.27;;;;;;;;;;5038877;28;20648;-64
2022/07/04 12:21:17;;;;;;;1.70;1.15;;;;;;;;;;5041127;28;20596;-63
2022/07/04 12:23:51;;;;;;;3.53;1.30;;;;;;;;;;5023320;28;20244;-64
2022/07/04 12:26:16;;;;;;;4.25;1.10;;;;;;;;;;5025602;28;20612;-64
2022/07/04 12:28:42;;;;;;;3.03;1.10;;;;;;;;;;5024894;28;20305;-65
2022/07/04 12:31:08;;;;;;;2.15;1.23;;;;;;;;;;5024719;28;20309;-64
2022/07/04 12:33:33;;;;;;;3.30;0.82;;;;;;;;;;5032070;28;20666;-65
2022/07/04 12:36:03;;;;;;;2.60;1.00;;;;;;;;;;5023711;28;20205;-62
2022/07/04 12:38:28;;;;;;;3.05;1.10;;;;;;;;;;5021506;28;20682;-64
2022/07/04 12:41:13;;;;;;;3.60;1.10;;;;;;;;;;5041284;28;20181;-62
2022/07/04 12:43:44;;;;;;;1.77;1.13;;;;;;;;;;5034128;28;20236;-62
2022/07/04 12:46:12;;;;;;;2.88;1.00;;;;;;;;;;5035446;28;20197;-62
2022/07/04 12:48:38;;;;;;;2.33;1.20;;;;;;;;;;5041331;28;20174;-63
2022/07/04 12:51:15;;;;;;;2.03;1.20;;;;;;;;;;5025933;28;20193;-64
2022/07/04 12:53:42;;;;;;;3.40;0.98;;;;;;;;;;5022004;28;20197;-65
2022/07/04 12:56:09;;;;;;;3.33;0.80;;;;;;;;;;5033474;28;20190;-63
2022/07/04 12:58:35;;;;;;;1.63;1.00;;;;;;;;;;5039434;28;20197;-63
2022/07/04 13:01:00;;;;;;;4.57;1.25;;;;;;;;;;5031032;28;20571;-63
2022/07/04 13:03:26;;;;;;;2.63;1.08;;;;;;;;;;5039223;28;20724;-63
2022/07/04 13:05:51;;;;;;;2.08;1.27;;;;;;;;;;5041480;28;20637;-64
2022/07/04 13:08:16;;;;;;;2.85;1.05;;;;;;;;;;5034791;28;20235;-64
2022/07/04 13:10:42;;;;;;;2.63;1.00;;;;;;;;;;5025972;28;20240;-63
2022/07/04 13:13:07;;;;;;;1.55;0.90;;;;;;;;;;5034209;28;20178;-63
2022/07/04 13:15:33;;;;;;;2.65;1.00;;;;;;;;;;5042915;28;20188;-63
2022/07/04 13:17:58;;;;;;;1.38;0.95;;;;;;;;;;5044914;28;20857;-64
2022/07/04 13:20:24;;;;;;;3.58;1.00;;;;;;;;;;5044317;28;20233;-64
2022/07/04 13:22:50;;;;;;;1.88;0.90;;;;;;;;;;5040421;28;20177;-64
2022/07/04 13:25:15;;;;;;;3.65;1.00;;;;;;;;;;5043220;28;20732;-63
2022/07/04 13:27:41;;;;;;;3.30;1.10;;;;;;;;;;5036447;28;20284;-63
2022/07/04 13:30:07;;;;;;;2.17;1.05;;;;;;;;;;5030583;28;20291;-63
2022/07/04 13:32:34;;;;;;;1.77;1.00;;;;;;;;;;5022055;28;20230;-67
2022/07/04 13:34:59;;;;;;;2.03;0.88;;;;;;;;;;5028557;28;20182;-65
2022/07/04 13:37:25;;;;;;;2.90;1.60;;;;;;;;;;5035342;28;20252;-64
2022/07/04 13:39:50;;;;;;;1.85;1.10;;;;;;;;;;5043111;28;20204;-64
2022/07/04 13:42:56;;;;;;;2.55;1.10;;;;;;;;;;5034974;28;20196;-63
2022/07/04 13:45:01;;;;;;;1.90;1.08;;;;;;;;;;5045628;28;20215;-64
2022/07/04 13:47:26;;;;;;;3.08;1.00;;;;;;;;;;5033258;28;20769;-64
2022/07/04 13:49:52;;;;;;;2.53;1.00;;;;;;;;;;5039045;28;20180;-64
2022/07/04 13:52:17;;;;;;;2.47;0.73;;;;;;;;;;5033602;28;20266;-64
2022/07/04 13:54:42;;;;;;;3.28;0.70;;;;;;;;;;5044177;28;20177;-63
2022/07/04 13:57:08;;;;;;;2.35;1.00;;;;;;;;;;5039549;28;20332;-63
2022/07/04 13:59:33;;;;;;;2.40;1.00;;;;;;;;;;5041068;28;20236;-63
2022/07/04 14:01:58;;;;;;;2.45;1.15;;;;;;;;;;5036042;28;20575;-63
2022/07/04 14:04:24;;;;;;;2.47;0.98;;;;;;;;;;5043854;28;20548;-63
2022/07/04 14:06:49;;;;;;;3.35;1.25;;;;;;;;;;5037715;28;20188;-63
2022/07/04 14:09:14;;;;;;;2.15;0.90;;;;;;;;;;5041308;28;20180;-63
2022/07/04 14:11:40;;;;;;;1.17;1.00;;;;;;;;;;5040452;28;20190;-64
2022/07/04 14:14:05;;;;;;;1.77;0.73;;;;;;;;;;5042182;28;20177;-64
2022/07/04 14:16:31;;;;;;;2.28;1.00;;;;;;;;;;5043247;28;20217;-63
2022/07/04 14:18:57;;;;;;;2.28;0.90;;;;;;;;;;5037153;28;20571;-65
2022/07/04 14:21:22;;;;;;;1.58;0.90;;;;;;;;;;5039204;28;20177;-63
2022/07/04 14:23:48;;;;;;;3.00;0.93;;;;;;;;;;5041227;28;20728;-63
2022/07/04 14:26:15;;;;;;;1.02;0.90;;;;;;;;;;5041844;28;20589;-65
2022/07/04 14:28:44;;;;;;;1.10;0.80;;;;;;;;;;5042270;28;20221;-63
2022/07/04 14:31:11;;;;;;;2.85;1.10;;;;;;;;;;5046689;28;20227;-63
2022/07/04 14:33:36;;;;;;;3.72;0.82;;;;;;;;;;5027062;28;20353;-64
2022/07/04 14:36:09;;;;;;;5.85;0.98;;;;;;;;;;5030050;28;20783;-64
2022/07/04 14:38:36;;;;;;;2.05;0.85;;;;;;;;;;5028705;28;20228;-63
2022/07/04 14:41:09;;;;;;;2.38;1.00;;;;;;;;;;5042293;28;20716;-64
2022/07/04 14:43:39;;;;;;;1.40;0.85;;;;;;;;;;5036866;28;20638;-63
2022/07/04 14:46:04;;;;;;;3.22;0.80;;;;;;;;;;5038394;28;20185;-64
2022/07/04 14:48:30;;;;;;;3.20;1.20;;;;;;;;;;5035149;28;20195;-64
2022/07/04 14:50:55;;;;;;;2.75;1.20;;;;;;;;;;5040778;28;20637;-63
2022/07/04 14:53:21;;;;;;;2.63;0.98;;;;;;;;;;5022885;28;20471;-62
2022/07/04 14:55:46;;;;;;;3.28;1.15;;;;;;;;;;5032892;28;20236;-63
2022/07/04 14:58:13;;;;;;;1.58;0.80;;;;;;;;;;5024891;28;20705;-64
2022/07/04 15:00:38;;;;;;;3.75;0.93;;;;;;;;;;5025544;28;20182;-64